Archival Weather

Chicago O'Hare International

Chicago, Illinois (KORD)

Report from: Sunday, July 31, 2022 10:51 AM CDT
Current time: Sunday, September 25, 2022 9:27 PM CDT

Current weather
Weather history
Weather forecast

Temperature26.7°C (80.1°F)
Heat index27.3°C (81.1°F)
Dew point14.4°C (57.9°F)
Winds 9 kts (4.6 m/s, 10.4 mph) South (180°)
Visibility10 mi. (16.1 km)
Clouds Scattered clouds 5,000 ft. (1,524 m)
Altimeter30.08 in.Hg (1019 mB)
Relative humidity47 %
Density altitude1,398 ft. (426 m)
Sea-level pressure101.8 kPa (1018 mB, 30.06 in.Hg)
Remarks System requires maintenance
Automated weather observing station with precipitation discriminator
Flight conditions Visual Meteorological Conditions
Raw dataKORD 311551Z 18009KT 10SM SCT050 27/14 A3008 RMK AO2 SLP179 T02670144 $
An error has occurred. This application may no longer respond until reloaded. Reload 🗙